createdAt,value
2018-03-08T00:01:39.728Z,10.07
2018-03-08T00:03:45.556Z,9.30
2018-03-08T00:05:51.341Z,9.20
2018-03-08T00:07:57.082Z,9.77
2018-03-08T00:10:05.482Z,7.70
2018-03-08T00:12:11.253Z,8.33
2018-03-08T00:14:16.773Z,9.70
2018-03-08T00:16:22.036Z,8.70
2018-03-08T00:18:27.917Z,7.93
2018-03-08T00:20:33.463Z,9.10
2018-03-08T00:22:39.069Z,9.30
2018-03-08T00:24:44.417Z,8.07
2018-03-08T00:26:50.526Z,9.10
2018-03-08T00:28:56.644Z,7.97
2018-03-08T00:31:03.215Z,8.67
2018-03-08T00:33:09.593Z,9.90
2018-03-08T00:35:15.427Z,8.30
2018-03-08T00:37:21.141Z,7.27
2018-03-08T00:39:26.997Z,8.07
2018-03-08T00:41:33.181Z,8.40
2018-03-08T00:43:39.233Z,7.40
2018-03-08T00:45:45.908Z,7.87
2018-03-08T00:47:51.705Z,8.33
2018-03-08T00:49:57.874Z,7.33
2018-03-08T00:52:07.917Z,7.43
2018-03-08T00:54:14.582Z,8.37
2018-03-08T00:56:20.702Z,8.10
2018-03-08T00:58:26.845Z,6.77
2018-03-08T01:00:34.063Z,8.40
2018-03-08T01:02:39.376Z,7.97
2018-03-08T01:04:45.595Z,6.80
2018-03-08T01:06:51.373Z,8.40
2018-03-08T01:08:57.416Z,8.60
2018-03-08T01:11:04.924Z,7.07
2018-03-08T01:13:11.354Z,7.87
2018-03-08T01:15:17.170Z,7.20
2018-03-08T01:17:22.767Z,7.70
2018-03-08T01:19:29.815Z,7.97
2018-03-08T01:21:35.924Z,8.00
2018-03-08T01:23:41.663Z,7.10
2018-03-08T01:25:47.793Z,6.87
2018-03-08T01:27:53.769Z,7.47
2018-03-08T01:29:59.685Z,6.20
2018-03-08T01:32:06.730Z,6.13
2018-03-08T01:34:12.893Z,7.13
2018-03-08T01:36:27.016Z,6.70
2018-03-08T01:38:32.756Z,6.80
2018-03-08T01:40:38.686Z,6.13
2018-03-08T01:42:44.874Z,6.80
2018-03-08T01:44:51.107Z,6.90
2018-03-08T01:46:56.343Z,6.37
2018-03-08T01:49:03.877Z,6.37
2018-03-08T01:51:10.008Z,5.50
2018-03-08T01:53:16.135Z,6.50
2018-03-08T01:55:22.064Z,5.00
2018-03-08T01:57:27.764Z,5.87
2018-03-08T01:59:33.540Z,5.97
2018-03-08T02:01:39.814Z,6.70
2018-03-08T02:03:45.699Z,5.90
2018-03-08T02:05:51.399Z,6.40
2018-03-08T02:07:57.488Z,6.00
2018-03-08T02:10:06.726Z,6.80
2018-03-08T02:12:13.522Z,5.73
2018-03-08T02:14:19.147Z,6.27
2018-03-08T02:16:24.668Z,6.10
2018-03-08T02:18:30.097Z,6.67
2018-03-08T02:20:35.805Z,6.27
2018-03-08T02:22:41.894Z,6.27
2018-03-08T02:24:47.164Z,6.30
2018-03-08T02:26:53.856Z,6.30
2018-03-08T02:29:01.955Z,7.27
2018-03-08T02:31:07.919Z,5.93
2018-03-08T02:33:13.469Z,6.73
2018-03-08T02:35:19.076Z,5.80
2018-03-08T02:37:25.600Z,6.50
2018-03-08T02:39:30.837Z,6.23
2018-03-08T02:41:36.920Z,7.67
2018-03-08T02:43:42.256Z,7.87
2018-03-08T02:45:48.288Z,6.80
2018-03-08T02:47:54.304Z,7.17
2018-03-08T02:50:01.033Z,7.33
2018-03-08T02:52:08.326Z,6.90
2018-03-08T02:54:13.829Z,5.80
2018-03-08T02:56:20.077Z,6.27
2018-03-08T02:58:26.968Z,5.90
2018-03-08T03:00:33.250Z,6.40
2018-03-08T03:02:39.309Z,5.53
2018-03-08T03:04:55.884Z,6.50
2018-03-08T03:07:04.866Z,5.50
2018-03-08T03:09:11.300Z,7.00
2018-03-08T03:11:17.476Z,6.57
2018-03-08T03:13:23.563Z,5.70
2018-03-08T03:15:29.777Z,6.30
2018-03-08T03:17:35.490Z,7.30
2018-03-08T03:19:41.387Z,6.33
2018-03-08T03:21:46.743Z,7.63
2018-03-08T03:23:52.569Z,7.20
2018-03-08T03:25:58.543Z,6.73
2018-03-08T03:28:06.924Z,8.00
2018-03-08T03:30:12.923Z,7.70
2018-03-08T03:32:19.269Z,7.60
2018-03-08T03:34:25.363Z,8.53
2018-03-08T03:36:31.127Z,8.60
2018-03-08T03:38:37.052Z,8.60
2018-03-08T03:40:42.924Z,6.47
2018-03-08T03:42:49.623Z,8.07
2018-03-08T03:44:55.688Z,8.37
2018-03-08T03:47:04.396Z,6.40
2018-03-08T03:49:10.652Z,7.03
2018-03-08T03:51:15.969Z,8.70
2018-03-08T03:53:21.716Z,6.87
2018-03-08T03:55:28.236Z,8.63
2018-03-08T03:57:34.079Z,7.23
2018-03-08T03:59:40.784Z,10.37
2018-03-08T04:01:46.897Z,9.00
2018-03-08T04:03:52.843Z,9.53
2018-03-08T04:05:58.621Z,9.50
2018-03-08T04:08:06.523Z,10.60
2018-03-08T04:10:11.852Z,8.10
2018-03-08T04:12:17.889Z,10.60
2018-03-08T04:14:23.448Z,9.03
2018-03-08T04:16:29.148Z,8.23
2018-03-08T04:18:34.772Z,9.60
2018-03-08T04:20:40.622Z,9.80
2018-03-08T04:22:46.740Z,8.63
2018-03-08T04:24:52.021Z,8.20
2018-03-08T04:26:58.144Z,8.80
2018-03-08T04:29:05.964Z,9.83
2018-03-08T04:31:11.420Z,9.20
2018-03-08T04:33:17.452Z,9.80
2018-03-08T04:35:23.264Z,8.40
2018-03-08T04:37:29.264Z,9.83
2018-03-08T04:39:34.560Z,9.80
2018-03-08T04:41:40.710Z,10.47
2018-03-08T04:43:46.714Z,10.30
2018-03-08T04:45:52.136Z,10.67
2018-03-08T04:47:58.001Z,9.73
2018-03-08T04:50:07.030Z,10.33
2018-03-08T04:52:12.418Z,11.93
2018-03-08T04:54:19.142Z,10.43
2018-03-08T04:56:25.533Z,9.30
2018-03-08T04:58:31.104Z,11.37
2018-03-08T05:00:36.757Z,9.27
2018-03-08T05:02:42.161Z,11.73
2018-03-08T05:04:47.511Z,11.00
2018-03-08T05:06:52.912Z,10.40
2018-03-08T05:08:58.640Z,12.20
2018-03-08T05:11:06.803Z,10.93
2018-03-08T05:13:12.504Z,11.17
2018-03-08T05:15:17.831Z,12.10
2018-03-08T05:17:23.430Z,10.80
2018-03-08T05:19:29.422Z,10.53
2018-03-08T05:21:34.597Z,11.13
2018-03-08T05:23:40.723Z,12.07
2018-03-08T05:25:46.368Z,12.60
2018-03-08T05:27:51.821Z,11.27
2018-03-08T05:29:57.878Z,12.17
2018-03-08T05:32:06.516Z,10.80
2018-03-08T05:34:12.642Z,12.70
2018-03-08T05:36:18.123Z,13.50
2018-03-08T05:38:24.768Z,12.50
2018-03-08T05:40:30.022Z,11.90
2018-03-08T05:42:35.704Z,11.33
2018-03-08T05:44:40.948Z,12.17
2018-03-08T05:46:46.305Z,12.23
2018-03-08T05:48:52.329Z,13.40
2018-03-08T05:51:02.828Z,12.27
2018-03-08T05:53:08.783Z,9.80
2018-03-08T05:55:14.188Z,10.57
2018-03-08T05:57:21.776Z,11.93
2018-03-08T05:59:32.416Z,12.00
2018-03-08T06:01:41.561Z,11.13
2018-03-08T06:03:52.474Z,12.70
2018-03-08T06:05:59.487Z,10.50
2018-03-08T06:08:08.194Z,11.30
2018-03-08T06:10:16.928Z,12.00
2018-03-08T06:12:22.683Z,10.70
2018-03-08T06:14:28.599Z,10.77
2018-03-08T06:16:33.894Z,12.57
2018-03-08T06:18:39.732Z,12.07
2018-03-08T06:20:45.570Z,10.40
2018-03-08T06:22:52.893Z,10.30
2018-03-08T06:24:58.704Z,11.30
2018-03-08T06:27:04.484Z,12.63
2018-03-08T06:29:10.032Z,10.20
2018-03-08T06:31:15.886Z,11.80
2018-03-08T06:33:21.779Z,9.47
2018-03-08T06:35:27.044Z,10.07
2018-03-08T06:37:32.436Z,11.50
2018-03-08T06:39:38.087Z,9.17
2018-03-08T06:41:43.522Z,10.43
2018-03-08T06:43:49.915Z,9.43
2018-03-08T06:45:55.493Z,9.50
2018-03-08T06:48:01.562Z,35.70
2018-03-08T06:50:06.974Z,103.07
2018-03-08T06:52:13.656Z,127.47
2018-03-08T06:54:19.588Z,209.60
2018-03-08T06:56:25.140Z,228.87
2018-03-08T06:58:31.038Z,334.77
2018-03-08T07:00:37.489Z,231.47
2018-03-08T07:02:43.168Z,268.67
2018-03-08T07:04:49.998Z,254.53
2018-03-08T07:06:55.768Z,158.27
2018-03-08T07:09:02.972Z,170.80
2018-03-08T07:11:08.952Z,86.77
2018-03-08T07:13:15.095Z,71.50
2018-03-08T07:15:22.624Z,65.63
2018-03-08T07:17:28.385Z,34.97
2018-03-08T07:19:35.386Z,25.53
2018-03-08T07:21:41.262Z,168.67
2018-03-08T07:23:47.824Z,172.70
2018-03-08T07:25:54.564Z,177.90
2018-03-08T07:27:59.932Z,115.53
2018-03-08T07:30:09.545Z,87.13
2018-03-08T07:32:15.837Z,51.97
2018-03-08T07:34:23.746Z,51.63
2018-03-08T07:36:30.125Z,42.53
2018-03-08T07:38:36.288Z,36.50
2018-03-08T07:40:42.748Z,29.03
2018-03-08T07:42:48.176Z,23.00
2018-03-08T07:44:54.392Z,819.53
2018-03-08T07:47:01.863Z,260.00
2018-03-08T07:49:07.168Z,125.27
2018-03-08T07:51:12.576Z,226.93
2018-03-08T07:53:18.312Z,91.63
2018-03-08T07:55:23.846Z,70.47
2018-03-08T07:57:29.200Z,49.23
2018-03-08T07:59:34.845Z,30.73
2018-03-08T08:01:40.261Z,30.53
2018-03-08T08:03:50.238Z,23.90
2018-03-08T08:07:08.178Z,141.03
2018-03-08T08:09:13.708Z,358.27
2018-03-08T08:11:19.067Z,224.80
2018-03-08T08:13:25.273Z,231.37
2018-03-08T08:15:30.681Z,999.90
2018-03-08T08:17:36.446Z,999.90
2018-03-08T08:19:41.797Z,999.83
2018-03-08T08:21:47.304Z,973.20
2018-03-08T08:23:53.006Z,973.73
2018-03-08T08:25:58.432Z,792.80
2018-03-08T08:28:05.240Z,532.77
2018-03-08T08:30:11.053Z,210.00
2018-03-08T08:32:16.530Z,466.27
2018-03-08T08:34:22.525Z,609.93
2018-03-08T08:36:28.228Z,324.17
2018-03-08T08:38:34.941Z,782.73
2018-03-08T08:40:40.435Z,216.30
2018-03-08T08:42:46.208Z,999.90
2018-03-08T08:44:51.500Z,596.47
2018-03-08T08:46:56.914Z,124.73
2018-03-08T08:49:03.457Z,35.20
2018-03-08T08:51:09.542Z,15.07
2018-03-08T08:53:17.050Z,12.47
2018-03-08T08:55:23.416Z,8.60
2018-03-08T08:57:32.880Z,35.80
2018-03-08T08:59:38.289Z,141.70
2018-03-08T09:01:45.462Z,424.33
2018-03-08T09:03:51.275Z,91.80
2018-03-08T09:05:57.488Z,210.97
2018-03-08T09:08:04.694Z,97.13
2018-03-08T09:10:12.975Z,22.40
2018-03-08T09:12:18.194Z,9.37
2018-03-08T09:14:25.842Z,6.93
2018-03-08T09:16:31.103Z,6.20
2018-03-08T09:18:38.691Z,999.90
2018-03-08T09:20:45.742Z,800.77
2018-03-08T09:22:51.397Z,999.90
2018-03-08T09:27:08.346Z,896.90
2018-03-08T09:29:14.589Z,329.33
2018-03-08T09:31:20.049Z,649.83
2018-03-08T09:33:25.346Z,316.70
2018-03-08T09:35:30.646Z,306.63
2018-03-08T09:37:37.922Z,328.50
2018-03-08T09:39:43.649Z,151.13
2018-03-08T09:41:48.942Z,300.20
2018-03-08T09:43:55.117Z,968.17
2018-03-08T09:46:01.849Z,302.07
2018-03-08T09:48:07.228Z,53.57
2018-03-08T09:50:12.530Z,487.70
2018-03-08T09:52:18.771Z,573.13
2018-03-08T09:54:24.088Z,167.70
2018-03-08T09:56:29.526Z,21.93
2018-03-08T09:58:35.121Z,35.20
2018-03-08T10:00:40.457Z,69.43
2018-03-08T10:02:46.720Z,171.83
2018-03-08T10:04:52.893Z,75.27
2018-03-08T10:06:58.627Z,16.10
2018-03-08T10:09:04.179Z,10.80
2018-03-08T10:11:09.708Z,744.60
2018-03-08T10:13:15.036Z,256.67
2018-03-08T10:15:20.433Z,44.90
2018-03-08T10:17:26.254Z,564.03
2018-03-08T10:19:32.104Z,25.60
2018-03-08T10:21:44.675Z,11.57
2018-03-08T10:23:43.089Z,7.53
2018-03-08T10:25:48.313Z,7.10
2018-03-08T10:27:53.599Z,6.60
2018-03-08T10:29:59.867Z,6.67
2018-03-08T10:32:09.915Z,5.90
2018-03-08T10:34:15.182Z,5.60
2018-03-08T10:36:20.769Z,7.40
2018-03-08T10:38:26.141Z,6.23
2018-03-08T10:44:43.616Z,5.50
2018-03-08T10:46:48.805Z,6.40
2018-03-08T10:51:00.662Z,5.90
2018-03-08T10:53:07.137Z,6.17
2018-03-08T10:55:12.348Z,5.90
2018-03-08T10:57:17.941Z,27.00
2018-03-08T10:59:23.251Z,6.93
2018-03-08T11:01:28.758Z,6.10
2018-03-08T11:03:38.235Z,5.80
2018-03-08T11:05:47.804Z,354.73
2018-03-08T11:08:02.213Z,262.27
2018-03-08T11:10:08.711Z,119.03
2018-03-08T11:12:14.040Z,233.03
2018-03-08T11:14:19.295Z,86.70
2018-03-08T11:16:25.531Z,179.57
2018-03-08T11:18:31.285Z,130.30
2018-03-08T11:20:36.621Z,223.77
2018-03-08T11:22:42.562Z,146.63
2018-03-08T11:24:48.563Z,95.10
2018-03-08T11:26:53.888Z,25.10
2018-03-08T11:28:59.968Z,155.40
2018-03-08T11:31:08.746Z,27.40
2018-03-08T11:33:14.085Z,12.47
2018-03-08T11:35:19.417Z,8.93
2018-03-08T11:37:24.901Z,8.70
2018-03-08T11:39:31.120Z,65.03
2018-03-08T11:41:36.656Z,999.90
2018-03-08T11:43:42.853Z,999.90
2018-03-08T11:45:48.580Z,927.67
2018-03-08T11:47:54.580Z,999.70
2018-03-08T11:50:01.495Z,721.43
2018-03-08T11:52:06.737Z,462.50
2018-03-08T11:54:16.299Z,175.50
2018-03-08T11:56:21.782Z,56.47
2018-03-08T11:58:27.603Z,30.50
2018-03-08T12:00:34.096Z,488.87
2018-03-08T12:02:41.116Z,394.37
2018-03-08T12:04:46.614Z,977.27
2018-03-08T12:06:51.903Z,364.47
2018-03-08T12:08:57.764Z,999.90
2018-03-08T12:11:05.664Z,708.63
2018-03-08T12:13:11.248Z,769.03
2018-03-08T12:16:42.269Z,652.73
2018-03-08T12:18:47.574Z,677.13
2018-03-08T12:20:53.572Z,636.77
2018-03-08T12:22:59.089Z,198.97
2018-03-08T12:25:07.099Z,68.73
2018-03-08T12:27:12.653Z,35.87
2018-03-08T12:29:18.043Z,22.67
2018-03-08T12:31:23.343Z,735.10
2018-03-08T12:33:29.085Z,379.40
2018-03-08T12:35:34.433Z,855.63
2018-03-08T12:37:39.784Z,999.90
2018-03-08T12:39:47.331Z,834.80
2018-03-08T12:41:52.694Z,350.30
2018-03-08T12:43:58.128Z,401.03
2018-03-08T12:46:05.394Z,210.83
2018-03-08T12:48:10.736Z,53.40
2018-03-08T12:50:16.176Z,28.50
2018-03-08T12:52:21.734Z,18.03
2018-03-08T12:54:27.478Z,13.43
2018-03-08T12:56:32.714Z,8.90
2018-03-08T12:58:38.326Z,249.10
2018-03-08T13:00:43.659Z,50.77
2018-03-08T13:02:48.960Z,21.63
2018-03-08T13:04:54.485Z,71.67
2018-03-08T13:07:01.687Z,29.47
2018-03-08T13:09:07.262Z,103.40
2018-03-08T13:11:13.038Z,48.30
2018-03-08T13:13:18.619Z,17.53
2018-03-08T13:15:24.081Z,404.60
2018-03-08T13:17:29.686Z,111.73
2018-03-08T13:19:35.015Z,17.47
2018-03-08T13:21:40.289Z,11.70
2018-03-08T13:23:45.871Z,7.30
2018-03-08T13:25:52.231Z,6.90
2018-03-08T13:27:57.645Z,5.87
2018-03-08T13:30:05.437Z,60.20
2018-03-08T13:32:11.029Z,148.83
2018-03-08T13:34:17.368Z,505.63
2018-03-08T13:36:23.053Z,280.33
2018-03-08T13:38:28.491Z,66.13
2018-03-08T13:40:33.981Z,25.63
2018-03-08T13:42:40.077Z,11.30
2018-03-08T13:44:45.417Z,7.37
2018-03-08T13:46:50.731Z,212.73
2018-03-08T13:48:56.572Z,708.80
2018-03-08T13:51:05.941Z,821.07
2018-03-08T13:53:11.217Z,999.90
2018-03-08T13:55:17.513Z,596.43
2018-03-08T13:57:22.804Z,444.50
2018-03-08T13:59:28.115Z,611.00
2018-03-08T14:01:33.912Z,999.90
2018-03-08T14:03:39.298Z,783.40
2018-03-08T14:05:44.676Z,658.10
2018-03-08T14:07:50.307Z,429.50
2018-03-08T14:09:58.609Z,281.07
2018-03-08T14:12:06.315Z,75.23
2018-03-08T14:14:12.165Z,35.20
2018-03-08T14:16:17.977Z,18.23
2018-03-08T14:18:28.340Z,7.87
2018-03-08T14:20:39.516Z,6.50
2018-03-08T14:22:48.545Z,6.13
2018-03-08T14:24:53.823Z,6.57
2018-03-08T14:26:59.423Z,4.73
2018-03-08T14:29:05.874Z,4.90
2018-03-08T14:31:11.168Z,4.87
2018-03-08T14:33:16.771Z,3.80
2018-03-08T14:35:22.084Z,3.50
2018-03-08T14:37:27.400Z,3.40
2018-03-08T14:39:33.178Z,3.50
2018-03-08T14:41:39.054Z,4.10
2018-03-08T14:43:44.542Z,3.60
2018-03-08T14:45:50.520Z,3.60
2018-03-08T14:47:56.156Z,2.90
2018-03-08T14:50:03.406Z,3.33
2018-03-08T14:52:09.215Z,3.30
2018-03-08T14:54:14.518Z,2.87
2018-03-08T14:56:22.910Z,2.53
2018-03-08T14:58:29.096Z,3.20
2018-03-08T15:00:34.637Z,2.77
2018-03-08T15:02:39.989Z,2.70
2018-03-08T15:04:45.768Z,2.77
2018-03-08T15:06:51.138Z,2.70
2018-03-08T15:08:56.409Z,2.60
2018-03-08T15:11:05.154Z,2.80
2018-03-08T15:13:10.500Z,2.83
2018-03-08T15:15:15.732Z,2.60
2018-03-08T15:17:21.453Z,3.33
2018-03-08T15:19:26.773Z,3.07
2018-03-08T15:21:32.044Z,2.90
2018-03-08T15:23:37.636Z,2.90
2018-03-08T15:25:43.455Z,3.20
2018-03-08T15:27:49.462Z,2.93
2018-03-08T15:29:55.209Z,2.90
2018-03-08T15:32:01.272Z,2.93
2018-03-08T15:34:07.426Z,3.00
2018-03-08T15:36:13.165Z,2.50
2018-03-08T15:38:23.080Z,2.40
2018-03-08T15:40:29.819Z,2.87
2018-03-08T15:42:35.737Z,3.40
2018-03-08T15:44:41.090Z,3.30
2018-03-08T15:46:46.473Z,3.33
2018-03-08T15:48:52.114Z,3.10
2018-03-08T15:50:57.441Z,3.23
2018-03-08T15:53:02.814Z,3.27
2018-03-08T15:55:08.543Z,3.23
2018-03-08T15:57:13.846Z,3.47
2018-03-08T15:59:19.155Z,4.33
2018-03-08T16:01:24.776Z,3.60
2018-03-08T16:03:30.679Z,3.60
2018-03-08T16:05:36.168Z,4.50
2018-03-08T16:07:42.641Z,4.50
2018-03-08T16:09:57.188Z,4.20
2018-03-08T16:12:05.482Z,4.33
2018-03-08T16:14:11.868Z,4.10
2018-03-08T16:16:18.221Z,4.40
2018-03-08T16:18:24.224Z,3.80
2018-03-08T16:20:30.056Z,4.07
2018-03-08T16:22:35.770Z,3.70
2018-03-08T16:24:41.528Z,3.87
2018-03-08T16:26:47.240Z,4.47
2018-03-08T16:28:57.019Z,4.03
2018-03-08T16:31:03.722Z,4.83
2018-03-08T16:33:09.379Z,3.80
2018-03-08T16:35:14.864Z,3.90
2018-03-08T16:37:20.192Z,4.17
2018-03-08T16:39:26.819Z,4.07
2018-03-08T16:41:33.025Z,4.40
2018-03-08T16:43:38.783Z,4.60
2018-03-08T16:45:48.924Z,4.27
2018-03-08T16:47:54.510Z,4.33
2018-03-08T16:50:00.304Z,4.50
2018-03-08T16:52:06.309Z,3.63
2018-03-08T16:54:11.927Z,4.00
2018-03-08T16:56:17.437Z,3.90
2018-03-08T16:58:23.515Z,4.13
2018-03-08T17:00:29.745Z,4.43
2018-03-08T17:02:36.276Z,4.17
2018-03-08T17:04:42.552Z,4.07
2018-03-08T17:06:48.078Z,3.77
2018-03-08T17:08:53.920Z,4.10
2018-03-08T17:11:01.308Z,3.60
2018-03-08T17:13:06.822Z,4.30
2018-03-08T17:15:14.118Z,4.40
2018-03-08T17:17:23.465Z,4.33
2018-03-08T17:19:29.040Z,4.27
2018-03-08T17:21:36.913Z,4.83
2018-03-08T17:23:42.737Z,3.50
2018-03-08T17:25:48.591Z,3.80
2018-03-08T17:27:54.713Z,4.83
2018-03-08T17:30:00.928Z,4.37
2018-03-08T17:32:06.456Z,4.13
2018-03-08T17:34:13.160Z,4.47
2018-03-08T17:36:21.331Z,4.50
2018-03-08T17:38:29.598Z,4.50
2018-03-08T17:40:37.334Z,4.67
2018-03-08T17:42:43.234Z,5.30
2018-03-08T17:44:49.866Z,5.43
2018-03-08T17:46:59.434Z,4.97
2018-03-08T17:49:05.318Z,5.50
2018-03-08T17:51:10.792Z,5.43
2018-03-08T17:53:16.302Z,6.00
2018-03-08T17:55:23.387Z,5.80
2018-03-08T17:57:29.500Z,6.23
2018-03-08T17:59:36.563Z,5.43
2018-03-08T18:01:42.456Z,5.20
2018-03-08T18:03:49.073Z,5.00
2018-03-08T18:05:54.504Z,5.77
2018-03-08T18:08:00.850Z,5.33
2018-03-08T18:10:07.992Z,5.50
2018-03-08T18:12:13.844Z,5.60
2018-03-08T18:14:21.035Z,5.60
2018-03-08T18:16:26.679Z,5.27
2018-03-08T18:18:33.816Z,5.87
2018-03-08T18:20:39.663Z,5.70
2018-03-08T18:22:45.311Z,6.00
2018-03-08T18:24:51.839Z,5.40
2018-03-08T18:26:57.561Z,5.77
2018-03-08T18:29:11.369Z,5.40
2018-03-08T18:31:17.241Z,6.20
2018-03-08T18:33:23.090Z,5.70
2018-03-08T18:35:28.665Z,5.57
2018-03-08T18:39:43.909Z,5.63
2018-03-08T18:41:51.468Z,5.00
2018-03-08T18:43:57.710Z,5.43
2018-03-08T18:46:07.508Z,5.43
2018-03-08T18:48:14.824Z,5.30
2018-03-08T18:50:20.723Z,5.70
2018-03-08T18:52:26.648Z,5.47
2018-03-08T18:54:32.060Z,5.10
2018-03-08T18:56:38.178Z,5.03
2018-03-08T18:58:43.801Z,5.77
2018-03-08T19:00:49.253Z,4.67
2018-03-08T19:02:55.038Z,4.40
2018-03-08T19:05:01.851Z,4.63
2018-03-08T19:07:07.592Z,5.23
2018-03-08T19:09:13.153Z,4.47
2018-03-08T19:11:18.964Z,4.70
2018-03-08T19:13:24.471Z,4.83
2018-03-08T19:15:29.915Z,5.67
2018-03-08T19:17:35.814Z,5.53
2018-03-08T19:19:41.268Z,4.70
2018-03-08T19:21:46.689Z,4.60
2018-03-08T19:23:52.248Z,5.00
2018-03-08T19:25:57.820Z,4.90
2018-03-08T19:28:03.226Z,4.50
2018-03-08T19:30:09.407Z,4.63
2018-03-08T19:32:15.736Z,4.30
2018-03-08T19:34:20.992Z,4.10
2018-03-08T19:36:26.668Z,5.47
2018-03-08T19:38:32.621Z,4.13
2018-03-08T19:40:38.317Z,5.07
2018-03-08T19:42:44.364Z,4.27
2018-03-08T19:44:49.946Z,4.77
2018-03-08T19:46:55.472Z,4.30
2018-03-08T19:49:01.100Z,5.20
2018-03-08T19:51:07.309Z,4.40
2018-03-08T19:53:13.560Z,4.40
2018-03-08T19:55:19.174Z,4.30
2018-03-08T19:57:27.274Z,4.97
2018-03-08T19:59:32.699Z,4.43
2018-03-08T20:01:38.995Z,3.97
2018-03-08T20:03:44.468Z,4.17
2018-03-08T20:05:49.749Z,3.93
2018-03-08T20:07:55.496Z,4.60
2018-03-08T20:10:05.966Z,3.80
2018-03-08T20:12:12.162Z,4.70
2018-03-08T20:14:20.536Z,3.73
2018-03-08T20:16:29.321Z,3.93
2018-03-08T20:18:36.244Z,3.87
2018-03-08T20:20:42.663Z,3.30
2018-03-08T20:22:48.051Z,3.70
2018-03-08T20:24:53.331Z,2.80
2018-03-08T20:26:59.394Z,3.70
2018-03-08T20:29:04.840Z,2.90
2018-03-08T20:31:10.116Z,3.00
2018-03-08T20:33:15.677Z,2.70
2018-03-08T20:35:21.550Z,2.67
2018-03-08T20:37:26.921Z,2.70
2018-03-08T20:39:32.643Z,2.30
2018-03-08T20:41:38.813Z,1.70
2018-03-08T20:43:44.434Z,1.97
2018-03-08T20:45:50.736Z,2.23
2018-03-08T20:47:56.081Z,2.00
2018-03-08T20:50:01.445Z,1.70
2018-03-08T20:52:07.185Z,1.70
2018-03-08T20:54:12.489Z,2.00
2018-03-08T20:56:17.879Z,1.70
2018-03-08T20:58:23.506Z,1.43
2018-03-08T21:00:28.804Z,1.53
2018-03-08T21:02:34.202Z,1.37
2018-03-08T21:04:39.777Z,1.20
2018-03-08T21:06:45.037Z,1.63
2018-03-08T21:08:50.599Z,1.30
2018-03-08T21:10:56.956Z,1.00
2018-03-08T21:13:04.239Z,1.63
2018-03-08T21:15:09.884Z,1.03
2018-03-08T21:17:15.648Z,1.30
2018-03-08T21:19:21.078Z,1.23
2018-03-08T21:21:26.573Z,0.80
2018-03-08T21:23:36.931Z,0.90
2018-03-08T21:25:42.468Z,0.90
2018-03-08T21:27:47.921Z,1.20
2018-03-08T21:29:59.484Z,1.20
2018-03-08T21:32:05.357Z,0.97
2018-03-08T21:34:10.739Z,0.80
2018-03-08T21:36:16.411Z,1.20
2018-03-08T21:38:21.697Z,0.87
2018-03-08T21:40:28.153Z,0.90
2018-03-08T21:42:33.704Z,0.70
2018-03-08T21:44:39.031Z,0.77
2018-03-08T21:46:44.469Z,1.10
2018-03-08T21:48:50.107Z,0.90
2018-03-08T21:50:55.507Z,1.03
2018-03-08T21:53:00.803Z,302.07
2018-03-08T21:55:09.288Z,167.23
2018-03-08T21:57:14.555Z,145.50
2018-03-08T21:59:19.914Z,45.80
2018-03-08T22:01:25.469Z,10.20
2018-03-08T22:03:30.807Z,2.97
2018-03-08T22:05:36.650Z,20.97
2018-03-08T22:07:42.233Z,134.50
2018-03-08T22:09:47.779Z,590.40
2018-03-08T22:11:53.281Z,339.03
2018-03-08T22:14:01.829Z,263.77
2018-03-08T22:16:07.815Z,457.97
2018-03-08T22:18:13.120Z,388.03
2018-03-08T22:20:19.144Z,135.93
2018-03-08T22:22:25.693Z,107.93
2018-03-08T22:24:32.551Z,54.70
2018-03-08T22:26:38.128Z,77.07
2018-03-08T22:28:43.390Z,157.93
2018-03-08T22:30:50.102Z,106.93
2018-03-08T22:32:55.657Z,57.20
2018-03-08T22:35:02.176Z,40.97
2018-03-08T22:37:07.550Z,123.60
2018-03-08T22:39:13.225Z,503.60
2018-03-08T22:41:18.495Z,456.60
2018-03-08T22:43:26.706Z,380.83
2018-03-08T22:45:33.581Z,97.83
2018-03-08T22:47:38.812Z,275.77
2018-03-08T22:49:44.532Z,464.27
2018-03-08T22:51:50.030Z,224.47
2018-03-08T22:53:56.300Z,75.50
2018-03-08T22:56:03.605Z,26.67
2018-03-08T22:58:09.238Z,10.30
2018-03-08T23:00:14.595Z,3.73
2018-03-08T23:02:23.817Z,2.60
2018-03-08T23:04:29.499Z,1.73
2018-03-08T23:06:35.560Z,2.73
2018-03-08T23:08:40.883Z,1.40
2018-03-08T23:10:46.670Z,1.23
2018-03-08T23:12:52.017Z,1.20
2018-03-08T23:14:57.308Z,1.20
2018-03-08T23:17:05.163Z,1.40
2018-03-08T23:19:10.464Z,1.27
2018-03-08T23:21:15.976Z,1.00
2018-03-08T23:23:22.058Z,1.27
2018-03-08T23:25:27.425Z,0.90
2018-03-08T23:27:32.849Z,1.20
2018-03-08T23:29:38.691Z,1.43
2018-03-08T23:31:44.764Z,1.17
2018-03-08T23:33:50.140Z,0.80
2018-03-08T23:35:56.525Z,1.00
2018-03-08T23:38:03.544Z,1.10
2018-03-08T23:40:09.619Z,1.20
2018-03-08T23:42:15.956Z,0.90
2018-03-08T23:44:21.928Z,1.10
2018-03-08T23:46:27.888Z,1.10
2018-03-08T23:48:33.576Z,1.30
2018-03-08T23:50:38.876Z,1.10
2018-03-08T23:52:44.431Z,1.00
2018-03-08T23:54:50.486Z,1.40
2018-03-08T23:56:55.926Z,1.50
2018-03-08T23:59:03.606Z,1.40
